sensor_id;sensor_type;location;lat;lon;timestamp;P1;durP1;ratioP1;P2;durP2;ratioP2
31716;SDS011;18301;51.076;17.046;2023-04-25T00:04:54;1.35;;;1.25;;
31716;SDS011;18301;51.076;17.046;2023-04-25T00:09:59;1.92;;;1.30;;
31716;SDS011;18301;51.076;17.046;2023-04-25T00:15:01;1.38;;;1.23;;
31716;SDS011;18301;51.076;17.046;2023-04-25T00:20:04;2.90;;;1.40;;
31716;SDS011;18301;51.076;17.046;2023-04-25T00:25:07;2.08;;;1.20;;
31716;SDS011;18301;51.076;17.046;2023-04-25T00:30:09;1.50;;;1.20;;
31716;SDS011;18301;51.076;17.046;2023-04-25T00:35:11;2.80;;;1.10;;
31716;SDS011;18301;51.076;17.046;2023-04-25T00:40:12;1.55;;;1.45;;
31716;SDS011;18301;51.076;17.046;2023-04-25T00:45:14;2.67;;;1.50;;
31716;SDS011;18301;51.076;17.046;2023-04-25T00:50:16;1.33;;;1.10;;
31716;SDS011;18301;51.076;17.046;2023-04-25T00:55:18;2.10;;;1.20;;
31716;SDS011;18301;51.076;17.046;2023-04-25T01:00:20;1.63;;;1.40;;
31716;SDS011;18301;51.076;17.046;2023-04-25T01:05:22;2.63;;;1.50;;
31716;SDS011;18301;51.076;17.046;2023-04-25T01:10:24;1.63;;;1.52;;
31716;SDS011;18301;51.076;17.046;2023-04-25T01:15:25;2.83;;;1.63;;
31716;SDS011;18301;51.076;17.046;2023-04-25T01:20:27;3.15;;;2.05;;
31716;SDS011;18301;51.076;17.046;2023-04-25T01:25:30;3.13;;;2.38;;
31716;SDS011;18301;51.076;17.046;2023-04-25T01:30:32;3.40;;;2.08;;
31716;SDS011;18301;51.076;17.046;2023-04-25T01:35:34;3.53;;;2.33;;
31716;SDS011;18301;51.076;17.046;2023-04-25T01:40:37;4.18;;;2.42;;
31716;SDS011;18301;51.076;17.046;2023-04-25T01:45:41;4.90;;;2.72;;
31716;SDS011;18301;51.076;17.046;2023-04-25T01:50:43;4.00;;;3.10;;
31716;SDS011;18301;51.076;17.046;2023-04-25T01:55:46;5.53;;;3.25;;
31716;SDS011;18301;51.076;17.046;2023-04-25T02:00:47;7.22;;;3.30;;
31716;SDS011;18301;51.076;17.046;2023-04-25T02:05:49;5.28;;;2.90;;
31716;SDS011;18301;51.076;17.046;2023-04-25T02:10:50;6.05;;;2.95;;
31716;SDS011;18301;51.076;17.046;2023-04-25T02:15:52;4.60;;;2.75;;
31716;SDS011;18301;51.076;17.046;2023-04-25T02:20:53;5.10;;;3.03;;
31716;SDS011;18301;51.076;17.046;2023-04-25T02:25:56;6.63;;;2.90;;
31716;SDS011;18301;51.076;17.046;2023-04-25T02:30:58;4.38;;;3.38;;
31716;SDS011;18301;51.076;17.046;2023-04-25T02:35:59;5.75;;;3.35;;
31716;SDS011;18301;51.076;17.046;2023-04-25T02:41:01;6.22;;;3.13;;
31716;SDS011;18301;51.076;17.046;2023-04-25T02:46:03;4.80;;;3.63;;
31716;SDS011;18301;51.076;17.046;2023-04-25T02:51:04;6.90;;;3.13;;
31716;SDS011;18301;51.076;17.046;2023-04-25T02:56:06;5.30;;;3.78;;
31716;SDS011;18301;51.076;17.046;2023-04-25T03:01:07;4.43;;;3.00;;
31716;SDS011;18301;51.076;17.046;2023-04-25T03:06:09;5.53;;;3.70;;
31716;SDS011;18301;51.076;17.046;2023-04-25T03:11:10;5.18;;;3.78;;
31716;SDS011;18301;51.076;17.046;2023-04-25T03:16:12;4.78;;;3.50;;
31716;SDS011;18301;51.076;17.046;2023-04-25T03:21:13;5.13;;;3.63;;
31716;SDS011;18301;51.076;17.046;2023-04-25T03:26:15;5.05;;;3.10;;
31716;SDS011;18301;51.076;17.046;2023-04-25T03:31:16;5.47;;;3.60;;
31716;SDS011;18301;51.076;17.046;2023-04-25T03:36:18;4.50;;;3.50;;
31716;SDS011;18301;51.076;17.046;2023-04-25T03:41:19;4.50;;;3.35;;
31716;SDS011;18301;51.076;17.046;2023-04-25T03:46:21;8.68;;;3.70;;
31716;SDS011;18301;51.076;17.046;2023-04-25T03:51:23;6.15;;;4.05;;
31716;SDS011;18301;51.076;17.046;2023-04-25T03:56:24;5.95;;;4.38;;
31716;SDS011;18301;51.076;17.046;2023-04-25T04:01:26;8.10;;;4.90;;
31716;SDS011;18301;51.076;17.046;2023-04-25T04:06:27;9.35;;;4.75;;
31716;SDS011;18301;51.076;17.046;2023-04-25T04:11:29;6.45;;;4.40;;
31716;SDS011;18301;51.076;17.046;2023-04-25T04:16:32;6.57;;;4.50;;
31716;SDS011;18301;51.076;17.046;2023-04-25T04:21:35;6.80;;;4.20;;
31716;SDS011;18301;51.076;17.046;2023-04-25T04:26:36;5.75;;;4.20;;
31716;SDS011;18301;51.076;17.046;2023-04-25T04:31:38;7.53;;;4.30;;
31716;SDS011;18301;51.076;17.046;2023-04-25T04:36:39;6.53;;;4.15;;
31716;SDS011;18301;51.076;17.046;2023-04-25T04:41:42;5.20;;;3.70;;
31716;SDS011;18301;51.076;17.046;2023-04-25T04:46:44;6.63;;;4.30;;
31716;SDS011;18301;51.076;17.046;2023-04-25T04:51:45;6.25;;;4.28;;
31716;SDS011;18301;51.076;17.046;2023-04-25T04:56:48;5.75;;;4.20;;
31716;SDS011;18301;51.076;17.046;2023-04-25T05:01:49;5.32;;;4.07;;
31716;SDS011;18301;51.076;17.046;2023-04-25T05:06:51;6.75;;;4.38;;
31716;SDS011;18301;51.076;17.046;2023-04-25T05:11:52;6.72;;;4.45;;
31716;SDS011;18301;51.076;17.046;2023-04-25T05:16:54;7.70;;;4.25;;
31716;SDS011;18301;51.076;17.046;2023-04-25T05:21:55;8.32;;;4.32;;
31716;SDS011;18301;51.076;17.046;2023-04-25T05:26:57;6.18;;;4.28;;
31716;SDS011;18301;51.076;17.046;2023-04-25T05:31:58;7.30;;;4.35;;
31716;SDS011;18301;51.076;17.046;2023-04-25T05:37:00;8.10;;;3.88;;
31716;SDS011;18301;51.076;17.046;2023-04-25T05:42:01;4.47;;;3.70;;
31716;SDS011;18301;51.076;17.046;2023-04-25T05:47:04;7.60;;;4.30;;
31716;SDS011;18301;51.076;17.046;2023-04-25T05:52:06;7.30;;;4.53;;
31716;SDS011;18301;51.076;17.046;2023-04-25T05:57:07;6.50;;;3.53;;
31716;SDS011;18301;51.076;17.046;2023-04-25T06:02:09;7.30;;;3.75;;
31716;SDS011;18301;51.076;17.046;2023-04-25T06:07:11;5.53;;;3.40;;
31716;SDS011;18301;51.076;17.046;2023-04-25T06:12:12;5.80;;;3.58;;
31716;SDS011;18301;51.076;17.046;2023-04-25T06:17:14;4.50;;;3.35;;
31716;SDS011;18301;51.076;17.046;2023-04-25T06:22:15;6.35;;;3.92;;
31716;SDS011;18301;51.076;17.046;2023-04-25T06:27:17;6.35;;;3.67;;
31716;SDS011;18301;51.076;17.046;2023-04-25T06:32:18;5.30;;;3.60;;
31716;SDS011;18301;51.076;17.046;2023-04-25T06:37:19;4.32;;;3.05;;
31716;SDS011;18301;51.076;17.046;2023-04-25T06:42:21;6.03;;;3.50;;
31716;SDS011;18301;51.076;17.046;2023-04-25T06:47:22;6.47;;;3.75;;
31716;SDS011;18301;51.076;17.046;2023-04-25T06:52:24;7.13;;;3.45;;
31716;SDS011;18301;51.076;17.046;2023-04-25T06:57:25;6.30;;;4.13;;
31716;SDS011;18301;51.076;17.046;2023-04-25T07:02:27;4.80;;;3.60;;
31716;SDS011;18301;51.076;17.046;2023-04-25T07:07:29;4.80;;;2.80;;
31716;SDS011;18301;51.076;17.046;2023-04-25T07:12:31;5.57;;;3.30;;
31716;SDS011;18301;51.076;17.046;2023-04-25T07:17:32;7.00;;;3.10;;
31716;SDS011;18301;51.076;17.046;2023-04-25T07:22:34;6.03;;;2.90;;
31716;SDS011;18301;51.076;17.046;2023-04-25T07:27:36;6.57;;;2.67;;
31716;SDS011;18301;51.076;17.046;2023-04-25T07:32:38;5.53;;;2.58;;
31716;SDS011;18301;51.076;17.046;2023-04-25T07:37:40;8.55;;;2.80;;
31716;SDS011;18301;51.076;17.046;2023-04-25T07:42:41;6.68;;;2.70;;
31716;SDS011;18301;51.076;17.046;2023-04-25T07:47:43;5.32;;;2.80;;
31716;SDS011;18301;51.076;17.046;2023-04-25T07:52:44;5.25;;;2.80;;
31716;SDS011;18301;51.076;17.046;2023-04-25T07:57:46;8.27;;;3.78;;
31716;SDS011;18301;51.076;17.046;2023-04-25T08:02:47;5.38;;;3.30;;
31716;SDS011;18301;51.076;17.046;2023-04-25T08:07:49;5.38;;;3.97;;
31716;SDS011;18301;51.076;17.046;2023-04-25T08:12:51;6.22;;;4.05;;
31716;SDS011;18301;51.076;17.046;2023-04-25T08:17:52;6.40;;;4.45;;
31716;SDS011;18301;51.076;17.046;2023-04-25T08:22:54;7.68;;;5.05;;
31716;SDS011;18301;51.076;17.046;2023-04-25T08:27:55;7.82;;;5.05;;
31716;SDS011;18301;51.076;17.046;2023-04-25T08:32:58;7.22;;;4.60;;
31716;SDS011;18301;51.076;17.046;2023-04-25T08:37:59;9.80;;;5.80;;
31716;SDS011;18301;51.076;17.046;2023-04-25T08:43:02;7.03;;;4.82;;
31716;SDS011;18301;51.076;17.046;2023-04-25T08:48:06;11.02;;;8.10;;
31716;SDS011;18301;51.076;17.046;2023-04-25T08:53:12;7.45;;;5.53;;
31716;SDS011;18301;51.076;17.046;2023-04-25T08:58:20;7.68;;;6.00;;
31716;SDS011;18301;51.076;17.046;2023-04-25T09:03:22;7.68;;;5.57;;
31716;SDS011;18301;51.076;17.046;2023-04-25T09:08:24;6.47;;;5.18;;
31716;SDS011;18301;51.076;17.046;2023-04-25T09:13:26;7.35;;;5.18;;
31716;SDS011;18301;51.076;17.046;2023-04-25T09:18:29;8.45;;;5.38;;
31716;SDS011;18301;51.076;17.046;2023-04-25T09:23:38;9.60;;;5.68;;
31716;SDS011;18301;51.076;17.046;2023-04-25T09:28:41;8.73;;;5.65;;
31716;SDS011;18301;51.076;17.046;2023-04-25T09:33:44;9.75;;;5.53;;
31716;SDS011;18301;51.076;17.046;2023-04-25T09:38:46;6.80;;;5.10;;
31716;SDS011;18301;51.076;17.046;2023-04-25T09:43:48;5.68;;;3.85;;
31716;SDS011;18301;51.076;17.046;2023-04-25T09:48:50;7.97;;;4.15;;
31716;SDS011;18301;51.076;17.046;2023-04-25T09:53:52;5.50;;;4.05;;
31716;SDS011;18301;51.076;17.046;2023-04-25T09:58:54;7.05;;;4.38;;
31716;SDS011;18301;51.076;17.046;2023-04-25T10:03:56;8.50;;;4.65;;
31716;SDS011;18301;51.076;17.046;2023-04-25T10:09:00;6.47;;;4.35;;
31716;SDS011;18301;51.076;17.046;2023-04-25T10:14:04;6.70;;;5.20;;
31716;SDS011;18301;51.076;17.046;2023-04-25T10:19:08;8.50;;;6.07;;
31716;SDS011;18301;51.076;17.046;2023-04-25T10:24:12;6.65;;;4.75;;
31716;SDS011;18301;51.076;17.046;2023-04-25T10:29:21;5.85;;;4.97;;
31716;SDS011;18301;51.076;17.046;2023-04-25T10:34:37;8.88;;;4.45;;
31716;SDS011;18301;51.076;17.046;2023-04-25T10:39:43;5.13;;;3.73;;
31716;SDS011;18301;51.076;17.046;2023-04-25T10:45:00;6.03;;;3.95;;
31716;SDS011;18301;51.076;17.046;2023-04-25T10:50:04;7.65;;;4.03;;
31716;SDS011;18301;51.076;17.046;2023-04-25T10:55:09;7.35;;;3.83;;
31716;SDS011;18301;51.076;17.046;2023-04-25T11:00:18;11.70;;;4.15;;
31716;SDS011;18301;51.076;17.046;2023-04-25T11:05:34;4.80;;;3.63;;
31716;SDS011;18301;51.076;17.046;2023-04-25T11:10:57;4.55;;;3.03;;
31716;SDS011;18301;51.076;17.046;2023-04-25T11:16:00;4.78;;;3.25;;
31716;SDS011;18301;51.076;17.046;2023-04-25T11:21:13;4.72;;;2.85;;
31716;SDS011;18301;51.076;17.046;2023-04-25T11:26:14;4.78;;;2.78;;
31716;SDS011;18301;51.076;17.046;2023-04-25T11:31:18;6.32;;;2.85;;
31716;SDS011;18301;51.076;17.046;2023-04-25T11:36:22;6.53;;;2.33;;
31716;SDS011;18301;51.076;17.046;2023-04-25T11:41:25;3.05;;;1.90;;
31716;SDS011;18301;51.076;17.046;2023-04-25T11:46:27;6.25;;;2.40;;
31716;SDS011;18301;51.076;17.046;2023-04-25T11:51:28;4.22;;;2.03;;
31716;SDS011;18301;51.076;17.046;2023-04-25T11:56:30;3.15;;;1.70;;
31716;SDS011;18301;51.076;17.046;2023-04-25T12:01:33;4.10;;;2.03;;
31716;SDS011;18301;51.076;17.046;2023-04-25T12:06:39;3.63;;;1.80;;
31716;SDS011;18301;51.076;17.046;2023-04-25T12:11:45;3.95;;;1.83;;
31716;SDS011;18301;51.076;17.046;2023-04-25T12:16:48;3.60;;;2.13;;
31716;SDS011;18301;51.076;17.046;2023-04-25T12:21:50;2.67;;;1.60;;
31716;SDS011;18301;51.076;17.046;2023-04-25T12:26:59;3.42;;;1.85;;
31716;SDS011;18301;51.076;17.046;2023-04-25T12:32:01;2.92;;;1.45;;
31716;SDS011;18301;51.076;17.046;2023-04-25T12:37:02;4.35;;;2.03;;
31716;SDS011;18301;51.076;17.046;2023-04-25T12:42:04;4.82;;;2.08;;
31716;SDS011;18301;51.076;17.046;2023-04-25T12:47:10;4.10;;;1.70;;
31716;SDS011;18301;51.076;17.046;2023-04-25T12:52:13;4.35;;;1.88;;
31716;SDS011;18301;51.076;17.046;2023-04-25T12:57:14;3.72;;;1.70;;
31716;SDS011;18301;51.076;17.046;2023-04-25T13:02:16;2.50;;;1.70;;
31716;SDS011;18301;51.076;17.046;2023-04-25T13:07:17;2.72;;;1.73;;
31716;SDS011;18301;51.076;17.046;2023-04-25T13:12:19;1.80;;;1.55;;
31716;SDS011;18301;51.076;17.046;2023-04-25T13:17:20;3.03;;;1.67;;
31716;SDS011;18301;51.076;17.046;2023-04-25T13:22:22;2.47;;;1.65;;
31716;SDS011;18301;51.076;17.046;2023-04-25T13:27:24;2.90;;;1.65;;
31716;SDS011;18301;51.076;17.046;2023-04-25T13:32:25;3.28;;;1.58;;
31716;SDS011;18301;51.076;17.046;2023-04-25T13:37:27;4.82;;;2.00;;
31716;SDS011;18301;51.076;17.046;2023-04-25T13:42:28;2.55;;;1.83;;
31716;SDS011;18301;51.076;17.046;2023-04-25T13:47:30;3.92;;;1.85;;
31716;SDS011;18301;51.076;17.046;2023-04-25T13:52:32;2.20;;;1.60;;
31716;SDS011;18301;51.076;17.046;2023-04-25T13:57:34;2.42;;;1.65;;
31716;SDS011;18301;51.076;17.046;2023-04-25T14:02:39;4.32;;;1.70;;
31716;SDS011;18301;51.076;17.046;2023-04-25T14:07:41;3.00;;;1.88;;
31716;SDS011;18301;51.076;17.046;2023-04-25T14:12:42;2.10;;;1.50;;
31716;SDS011;18301;51.076;17.046;2023-04-25T14:17:44;3.88;;;1.92;;
31716;SDS011;18301;51.076;17.046;2023-04-25T14:22:46;2.88;;;2.00;;
31716;SDS011;18301;51.076;17.046;2023-04-25T14:27:48;4.80;;;1.98;;
31716;SDS011;18301;51.076;17.046;2023-04-25T14:32:51;10.38;;;5.43;;
31716;SDS011;18301;51.076;17.046;2023-04-25T14:37:52;3.53;;;2.60;;
31716;SDS011;18301;51.076;17.046;2023-04-25T14:42:54;2.35;;;1.83;;
31716;SDS011;18301;51.076;17.046;2023-04-25T14:47:56;3.28;;;2.10;;
31716;SDS011;18301;51.076;17.046;2023-04-25T14:52:57;3.30;;;1.50;;
31716;SDS011;18301;51.076;17.046;2023-04-25T14:58:01;1.90;;;1.60;;
31716;SDS011;18301;51.076;17.046;2023-04-25T15:03:03;2.55;;;1.85;;
31716;SDS011;18301;51.076;17.046;2023-04-25T15:08:05;5.03;;;1.80;;
31716;SDS011;18301;51.076;17.046;2023-04-25T15:13:07;3.00;;;1.83;;
31716;SDS011;18301;51.076;17.046;2023-04-25T15:18:08;3.42;;;2.00;;
31716;SDS011;18301;51.076;17.046;2023-04-25T15:23:10;3.03;;;1.70;;
31716;SDS011;18301;51.076;17.046;2023-04-25T15:28:12;2.92;;;1.48;;
31716;SDS011;18301;51.076;17.046;2023-04-25T15:33:17;3.67;;;2.30;;
31716;SDS011;18301;51.076;17.046;2023-04-25T15:38:18;4.30;;;2.13;;
31716;SDS011;18301;51.076;17.046;2023-04-25T15:43:20;3.83;;;1.85;;
31716;SDS011;18301;51.076;17.046;2023-04-25T15:48:21;3.88;;;2.17;;
31716;SDS011;18301;51.076;17.046;2023-04-25T15:53:23;4.05;;;2.50;;
31716;SDS011;18301;51.076;17.046;2023-04-25T15:58:24;4.82;;;2.42;;
31716;SDS011;18301;51.076;17.046;2023-04-25T16:03:27;5.60;;;2.88;;
31716;SDS011;18301;51.076;17.046;2023-04-25T16:08:29;5.20;;;2.65;;
31716;SDS011;18301;51.076;17.046;2023-04-25T16:13:34;5.75;;;3.08;;
31716;SDS011;18301;51.076;17.046;2023-04-25T16:18:36;3.55;;;2.55;;
31716;SDS011;18301;51.076;17.046;2023-04-25T16:23:37;6.80;;;3.20;;
31716;SDS011;18301;51.076;17.046;2023-04-25T16:28:38;6.47;;;2.90;;
31716;SDS011;18301;51.076;17.046;2023-04-25T16:33:41;3.72;;;2.45;;
31716;SDS011;18301;51.076;17.046;2023-04-25T16:38:42;3.92;;;2.50;;
31716;SDS011;18301;51.076;17.046;2023-04-25T16:43:44;1.90;;;1.70;;
31716;SDS011;18301;51.076;17.046;2023-04-25T16:48:46;2.38;;;1.73;;
31716;SDS011;18301;51.076;17.046;2023-04-25T16:53:49;5.40;;;2.63;;
31716;SDS011;18301;51.076;17.046;2023-04-25T16:58:50;4.63;;;2.58;;
31716;SDS011;18301;51.076;17.046;2023-04-25T17:03:53;4.20;;;2.65;;
31716;SDS011;18301;51.076;17.046;2023-04-25T17:08:54;3.47;;;2.40;;
31716;SDS011;18301;51.076;17.046;2023-04-25T17:13:56;5.07;;;2.70;;
31716;SDS011;18301;51.076;17.046;2023-04-25T17:18:57;3.25;;;2.15;;
31716;SDS011;18301;51.076;17.046;2023-04-25T17:23:59;5.03;;;2.50;;
31716;SDS011;18301;51.076;17.046;2023-04-25T17:29:01;4.00;;;2.20;;
31716;SDS011;18301;51.076;17.046;2023-04-25T17:34:02;4.47;;;1.90;;
31716;SDS011;18301;51.076;17.046;2023-04-25T17:39:05;4.82;;;2.08;;
31716;SDS011;18301;51.076;17.046;2023-04-25T17:44:08;3.75;;;2.22;;
31716;SDS011;18301;51.076;17.046;2023-04-25T17:49:09;5.07;;;2.10;;
31716;SDS011;18301;51.076;17.046;2023-04-25T17:54:11;7.45;;;2.85;;
31716;SDS011;18301;51.076;17.046;2023-04-25T17:59:13;4.30;;;2.80;;
31716;SDS011;18301;51.076;17.046;2023-04-25T18:04:14;7.22;;;3.55;;
31716;SDS011;18301;51.076;17.046;2023-04-25T18:09:16;8.13;;;3.65;;
31716;SDS011;18301;51.076;17.046;2023-04-25T18:14:17;7.45;;;3.40;;
31716;SDS011;18301;51.076;17.046;2023-04-25T18:19:20;8.75;;;4.05;;
31716;SDS011;18301;51.076;17.046;2023-04-25T18:24:23;8.02;;;3.97;;
31716;SDS011;18301;51.076;17.046;2023-04-25T18:29:27;6.88;;;3.38;;
31716;SDS011;18301;51.076;17.046;2023-04-25T18:34:34;9.38;;;3.92;;
31716;SDS011;18301;51.076;17.046;2023-04-25T18:39:35;8.25;;;3.80;;
31716;SDS011;18301;51.076;17.046;2023-04-25T18:44:37;8.70;;;4.10;;
31716;SDS011;18301;51.076;17.046;2023-04-25T18:49:42;11.45;;;4.45;;
31716;SDS011;18301;51.076;17.046;2023-04-25T18:54:43;11.45;;;4.72;;
31716;SDS011;18301;51.076;17.046;2023-04-25T18:59:45;9.25;;;4.38;;
31716;SDS011;18301;51.076;17.046;2023-04-25T19:04:47;8.98;;;4.22;;
31716;SDS011;18301;51.076;17.046;2023-04-25T19:09:49;10.38;;;4.57;;
31716;SDS011;18301;51.076;17.046;2023-04-25T19:14:51;11.35;;;4.63;;
31716;SDS011;18301;51.076;17.046;2023-04-25T19:19:53;10.52;;;3.92;;
31716;SDS011;18301;51.076;17.046;2023-04-25T19:24:54;10.45;;;4.32;;
31716;SDS011;18301;51.076;17.046;2023-04-25T19:30:11;10.55;;;4.35;;
31716;SDS011;18301;51.076;17.046;2023-04-25T19:35:12;13.85;;;4.43;;
31716;SDS011;18301;51.076;17.046;2023-04-25T19:40:14;11.95;;;4.53;;
31716;SDS011;18301;51.076;17.046;2023-04-25T19:45:17;12.77;;;3.97;;
31716;SDS011;18301;51.076;17.046;2023-04-25T19:50:19;10.88;;;4.00;;
31716;SDS011;18301;51.076;17.046;2023-04-25T19:55:21;9.13;;;3.90;;
31716;SDS011;18301;51.076;17.046;2023-04-25T20:00:23;8.40;;;3.55;;
31716;SDS011;18301;51.076;17.046;2023-04-25T20:05:24;10.02;;;4.00;;
31716;SDS011;18301;51.076;17.046;2023-04-25T20:10:27;7.90;;;3.20;;
31716;SDS011;18301;51.076;17.046;2023-04-25T20:15:28;6.65;;;3.72;;
31716;SDS011;18301;51.076;17.046;2023-04-25T20:20:30;11.68;;;4.38;;
31716;SDS011;18301;51.076;17.046;2023-04-25T20:25:31;10.55;;;4.68;;
31716;SDS011;18301;51.076;17.046;2023-04-25T20:30:32;8.48;;;3.88;;
31716;SDS011;18301;51.076;17.046;2023-04-25T20:35:34;9.27;;;4.05;;
31716;SDS011;18301;51.076;17.046;2023-04-25T20:40:36;11.82;;;3.70;;
31716;SDS011;18301;51.076;17.046;2023-04-25T20:45:38;7.47;;;3.30;;
31716;SDS011;18301;51.076;17.046;2023-04-25T20:50:40;11.57;;;3.72;;
31716;SDS011;18301;51.076;17.046;2023-04-25T20:55:41;10.23;;;4.10;;
31716;SDS011;18301;51.076;17.046;2023-04-25T21:00:43;8.93;;;3.72;;
31716;SDS011;18301;51.076;17.046;2023-04-25T21:05:47;8.95;;;3.40;;
31716;SDS011;18301;51.076;17.046;2023-04-25T21:10:49;11.55;;;4.35;;
31716;SDS011;18301;51.076;17.046;2023-04-25T21:15:50;12.38;;;4.15;;
31716;SDS011;18301;51.076;17.046;2023-04-25T21:20:52;7.53;;;4.28;;
31716;SDS011;18301;51.076;17.046;2023-04-25T21:25:53;10.93;;;4.85;;
31716;SDS011;18301;51.076;17.046;2023-04-25T21:30:55;13.32;;;4.70;;
31716;SDS011;18301;51.076;17.046;2023-04-25T21:35:57;12.60;;;5.00;;
31716;SDS011;18301;51.076;17.046;2023-04-25T21:40:58;12.95;;;4.60;;
31716;SDS011;18301;51.076;17.046;2023-04-25T21:46:00;12.45;;;4.60;;
31716;SDS011;18301;51.076;17.046;2023-04-25T21:51:04;11.02;;;5.25;;
31716;SDS011;18301;51.076;17.046;2023-04-25T21:56:06;14.63;;;5.15;;
31716;SDS011;18301;51.076;17.046;2023-04-25T22:01:07;12.00;;;5.05;;
31716;SDS011;18301;51.076;17.046;2023-04-25T22:06:09;12.00;;;5.13;;
31716;SDS011;18301;51.076;17.046;2023-04-25T22:11:11;13.60;;;5.78;;
31716;SDS011;18301;51.076;17.046;2023-04-25T22:16:13;11.07;;;4.50;;
31716;SDS011;18301;51.076;17.046;2023-04-25T22:21:15;10.60;;;5.13;;
31716;SDS011;18301;51.076;17.046;2023-04-25T22:26:18;11.48;;;5.13;;
31716;SDS011;18301;51.076;17.046;2023-04-25T22:31:20;13.70;;;5.85;;
31716;SDS011;18301;51.076;17.046;2023-04-25T22:36:22;13.82;;;5.70;;
31716;SDS011;18301;51.076;17.046;2023-04-25T22:41:24;14.63;;;5.40;;
31716;SDS011;18301;51.076;17.046;2023-04-25T22:46:25;10.30;;;4.88;;
31716;SDS011;18301;51.076;17.046;2023-04-25T22:51:27;15.18;;;4.82;;
31716;SDS011;18301;51.076;17.046;2023-04-25T22:56:29;14.73;;;4.72;;
31716;SDS011;18301;51.076;17.046;2023-04-25T23:01:30;11.05;;;4.57;;
31716;SDS011;18301;51.076;17.046;2023-04-25T23:06:32;13.45;;;5.55;;
31716;SDS011;18301;51.076;17.046;2023-04-25T23:11:34;10.23;;;5.00;;
31716;SDS011;18301;51.076;17.046;2023-04-25T23:16:35;11.30;;;4.70;;
31716;SDS011;18301;51.076;17.046;2023-04-25T23:21:37;12.02;;;5.35;;
31716;SDS011;18301;51.076;17.046;2023-04-25T23:26:40;12.48;;;4.97;;
31716;SDS011;18301;51.076;17.046;2023-04-25T23:31:42;11.25;;;4.72;;
31716;SDS011;18301;51.076;17.046;2023-04-25T23:36:44;12.95;;;4.57;;
31716;SDS011;18301;51.076;17.046;2023-04-25T23:41:45;11.32;;;4.18;;
31716;SDS011;18301;51.076;17.046;2023-04-25T23:46:47;10.00;;;4.30;;
31716;SDS011;18301;51.076;17.046;2023-04-25T23:51:48;10.45;;;4.57;;
31716;SDS011;18301;51.076;17.046;2023-04-25T23:56:50;11.27;;;4.60;;
